createdAt,value
2018-08-20T13:01:54.591Z,940.90
2018-08-20T13:02:54.229Z,940.90
2018-08-20T13:03:54.214Z,940.92
2018-08-20T13:04:54.204Z,940.94
2018-08-20T13:05:54.196Z,940.93
2018-08-20T13:06:54.185Z,940.96
2018-08-20T13:07:54.183Z,940.96
2018-08-20T13:08:54.188Z,940.98
2018-08-20T13:09:54.161Z,940.92
2018-08-20T13:10:54.153Z,940.93
2018-08-20T13:11:54.148Z,940.93
2018-08-20T13:12:54.142Z,940.85
2018-08-20T13:13:54.133Z,940.87
2018-08-20T13:14:54.129Z,940.87
2018-08-20T13:15:54.190Z,940.84
2018-08-20T13:16:54.121Z,940.81
2018-08-20T13:17:54.115Z,940.81
2018-08-20T13:18:54.105Z,940.83
2018-08-20T13:19:54.100Z,940.78
2018-08-20T13:20:54.096Z,940.78
2018-08-20T13:21:54.090Z,940.80
2018-08-20T13:22:54.085Z,940.82
2018-08-20T13:23:54.079Z,940.84
2018-08-20T13:24:54.075Z,940.79
2018-08-20T13:25:54.220Z,940.82
2018-08-20T13:26:54.216Z,940.78
2018-08-20T13:27:54.063Z,940.78
2018-08-20T13:28:54.057Z,940.80
2018-08-20T13:29:54.049Z,940.81
2018-08-20T13:30:54.047Z,940.78
2018-08-20T13:31:54.041Z,940.77
2018-08-20T13:32:54.039Z,940.79
2018-08-20T13:33:54.033Z,940.80
2018-08-20T13:34:54.029Z,940.74
2018-08-20T13:35:54.025Z,940.74
2018-08-20T13:36:54.020Z,940.72
2018-08-20T13:37:54.016Z,940.74
2018-08-20T13:38:54.013Z,940.69
2018-08-20T13:39:54.007Z,940.71
2018-08-20T13:40:54.005Z,940.64
2018-08-20T13:41:54.001Z,940.67
2018-08-20T13:42:53.996Z,940.63
2018-08-20T13:43:54.003Z,940.63
2018-08-20T13:44:53.990Z,940.62
2018-08-20T13:45:54.087Z,940.60
2018-08-20T13:46:53.984Z,940.60
2018-08-20T13:47:53.984Z,940.60
2018-08-20T13:48:54.073Z,940.57
2018-08-20T13:49:53.969Z,940.58
2018-08-20T13:50:53.967Z,940.56
2018-08-20T13:51:53.963Z,940.58
2018-08-20T13:52:53.960Z,940.52
2018-08-20T13:53:53.955Z,940.52
2018-08-20T13:54:53.950Z,940.52
2018-08-20T13:55:53.949Z,940.51
2018-08-20T13:56:53.945Z,940.50
2018-08-20T13:57:53.942Z,940.43
2018-08-20T13:58:53.937Z,940.46
2018-08-20T13:59:53.935Z,940.46
2018-08-20T14:00:53.961Z,940.43
2018-08-20T14:01:53.927Z,940.41
2018-08-20T14:02:53.925Z,940.41
2018-08-20T14:03:53.924Z,940.41
2018-08-20T14:04:53.920Z,940.42
2018-08-20T14:05:53.916Z,940.36
2018-08-20T14:06:53.913Z,940.34
2018-08-20T14:07:53.910Z,940.32
2018-08-20T14:08:53.911Z,940.28
2018-08-20T14:09:53.945Z,940.29
2018-08-20T14:10:53.901Z,940.29
2018-08-20T14:11:53.898Z,940.26
2018-08-20T14:12:53.899Z,940.24
2018-08-20T14:13:53.893Z,940.20
2018-08-20T14:14:53.889Z,940.18
2018-08-20T14:15:53.925Z,940.24
2018-08-20T14:16:53.884Z,940.26
2018-08-20T14:17:53.881Z,940.19
2018-08-20T14:18:53.878Z,940.16
2018-08-20T14:19:53.876Z,940.16
2018-08-20T14:20:53.873Z,940.16
2018-08-20T14:21:53.874Z,940.15
2018-08-20T14:22:53.867Z,940.12
2018-08-20T14:23:53.865Z,940.13
2018-08-20T14:24:53.860Z,940.10
2018-08-20T14:25:53.858Z,940.03
2018-08-20T14:26:53.857Z,940.11
2018-08-20T14:27:53.854Z,940.09
2018-08-20T14:28:53.851Z,940.11
2018-08-20T14:29:53.860Z,940.07
2018-08-20T14:30:53.847Z,940.07
2018-08-20T14:31:53.845Z,940.10
2018-08-20T14:32:53.841Z,940.10
2018-08-20T14:33:53.839Z,940.10
2018-08-20T14:34:53.837Z,940.11
2018-08-20T14:35:54.035Z,940.07
2018-08-20T14:36:53.847Z,940.07
2018-08-20T14:37:53.832Z,940.05
2018-08-20T14:38:53.828Z,940.06
2018-08-20T14:39:53.826Z,940.02
2018-08-20T14:40:53.824Z,940.01
2018-08-20T14:41:53.826Z,940.02
2018-08-20T14:42:53.819Z,939.99
2018-08-20T14:43:53.817Z,940.03
2018-08-20T14:44:53.816Z,940.01
2018-08-20T14:45:53.813Z,939.95
2018-08-20T14:46:53.811Z,939.95
2018-08-20T14:47:53.808Z,939.94
2018-08-20T14:48:53.807Z,939.96
2018-08-20T14:49:53.805Z,939.94
2018-08-20T14:50:53.805Z,939.97
2018-08-20T14:51:53.901Z,939.98
2018-08-20T14:52:53.800Z,939.96
2018-08-20T14:53:53.797Z,939.95
2018-08-20T14:54:53.794Z,939.94
2018-08-20T14:55:53.792Z,939.93
2018-08-20T14:56:53.790Z,939.88
2018-08-20T14:57:53.788Z,939.87
2018-08-20T14:58:53.787Z,939.84
2018-08-20T14:59:53.789Z,939.87
2018-08-20T15:00:53.782Z,939.84
2018-08-20T15:01:53.819Z,939.81
2018-08-20T15:02:53.780Z,939.81
2018-08-20T15:03:53.774Z,939.77
2018-08-20T15:04:53.772Z,939.76
2018-08-20T15:05:53.771Z,939.74
2018-08-20T15:06:53.765Z,939.72
2018-08-20T15:07:53.770Z,939.72
2018-08-20T15:08:53.761Z,939.67
2018-08-20T15:09:53.758Z,939.64
2018-08-20T15:10:53.763Z,939.64
2018-08-20T15:11:53.853Z,939.62
2018-08-20T15:12:53.751Z,939.61
2018-08-20T15:13:53.746Z,939.59
2018-08-20T15:14:53.748Z,939.60
2018-08-20T15:15:53.797Z,939.61
2018-08-20T15:16:53.739Z,939.63
2018-08-20T15:17:53.733Z,939.61
2018-08-20T15:18:53.732Z,939.57
2018-08-20T15:19:53.731Z,939.56
2018-08-20T15:20:53.725Z,939.56
2018-08-20T15:21:53.726Z,939.55
2018-08-20T15:22:53.719Z,939.57
2018-08-20T15:23:53.717Z,939.53
2018-08-20T15:24:53.713Z,939.52
2018-08-20T15:25:53.709Z,939.50
2018-08-20T15:26:53.709Z,939.47
2018-08-20T15:27:53.702Z,939.45
2018-08-20T15:28:53.699Z,939.48
2018-08-20T15:29:53.695Z,939.38
2018-08-20T15:30:53.702Z,939.39
2018-08-20T15:31:53.689Z,939.36
2018-08-20T15:32:53.685Z,939.39
2018-08-20T15:33:53.681Z,939.36
2018-08-20T15:34:53.678Z,939.35
2018-08-20T15:35:53.680Z,939.39
2018-08-20T15:36:53.671Z,939.35
2018-08-20T15:37:53.667Z,939.33
2018-08-20T15:38:53.664Z,939.31
2018-08-20T15:39:53.661Z,939.33
2018-08-20T15:40:53.657Z,939.35
2018-08-20T15:41:53.653Z,939.32
2018-08-20T15:42:53.649Z,939.33
2018-08-20T15:43:53.646Z,939.36
2018-08-20T15:44:53.642Z,939.37
2018-08-20T15:45:53.641Z,939.36
2018-08-20T15:46:53.635Z,939.36
2018-08-20T15:47:53.633Z,939.33
2018-08-20T15:48:53.628Z,939.31
2018-08-20T15:49:53.622Z,939.31
2018-08-20T15:50:53.618Z,939.25
2018-08-20T15:51:53.615Z,939.24
2018-08-20T15:52:53.650Z,939.24
2018-08-20T15:53:53.611Z,939.24
2018-08-20T15:54:53.603Z,939.20
2018-08-20T15:55:53.599Z,939.20
2018-08-20T15:56:53.595Z,939.23
2018-08-20T15:57:53.593Z,939.23
2018-08-20T15:58:53.590Z,939.17
2018-08-20T15:59:53.581Z,939.14
2018-08-20T16:00:53.578Z,939.13
2018-08-20T16:01:53.574Z,939.10
2018-08-20T16:02:53.570Z,939.07
2018-08-20T16:03:53.566Z,939.08
2018-08-20T16:04:53.564Z,939.09
2018-08-20T16:05:53.558Z,939.05
2018-08-20T16:06:53.554Z,939.02
2018-08-20T16:07:53.550Z,939.03
2018-08-20T16:08:53.545Z,939.01
2018-08-20T16:09:53.541Z,938.98
2018-08-20T16:10:53.538Z,939.00
2018-08-20T16:11:53.535Z,938.98
2018-08-20T16:12:53.536Z,938.93
2018-08-20T16:13:53.525Z,938.97
2018-08-20T16:14:53.521Z,938.93
2018-08-20T16:15:53.617Z,938.92
2018-08-20T16:16:53.514Z,938.93
2018-08-20T16:17:53.508Z,938.94
2018-08-20T16:18:53.504Z,938.91
2018-08-20T16:19:53.501Z,938.91
2018-08-20T16:20:53.498Z,938.92
2018-08-20T16:21:53.492Z,938.91
2018-08-20T16:22:53.489Z,938.86
2018-08-20T16:23:53.485Z,938.87
2018-08-20T16:24:53.483Z,938.85
2018-08-20T16:25:53.476Z,938.81
2018-08-20T16:26:53.472Z,938.78
2018-08-20T16:27:53.469Z,938.78
2018-08-20T16:28:53.466Z,938.81
2018-08-20T16:29:53.461Z,938.76
2018-08-20T16:30:53.459Z,938.71
2018-08-20T16:31:53.452Z,938.71
2018-08-20T16:32:53.451Z,938.69
2018-08-20T16:33:53.446Z,938.62
2018-08-20T16:34:53.442Z,938.61
2018-08-20T16:35:53.439Z,938.70
2018-08-20T16:36:53.435Z,938.70
2018-08-20T16:37:53.430Z,938.63
2018-08-20T16:38:53.425Z,938.68
2018-08-20T16:39:53.422Z,938.66
2018-08-20T16:40:53.419Z,938.58
2018-08-20T16:41:53.414Z,938.60
2018-08-20T16:42:53.411Z,938.58
2018-08-20T16:43:53.408Z,938.56
2018-08-20T16:44:53.405Z,938.56
2018-08-20T16:45:53.402Z,938.57
2018-08-20T16:46:53.401Z,938.56
2018-08-20T16:47:53.392Z,938.52
2018-08-20T16:48:53.391Z,938.47
2018-08-20T16:49:53.385Z,938.46
2018-08-20T16:50:53.431Z,938.46
2018-08-20T16:51:53.477Z,938.44
2018-08-20T16:52:53.374Z,938.44
2018-08-20T16:53:53.371Z,938.45
2018-08-20T16:54:53.366Z,938.38
2018-08-20T16:55:53.363Z,938.37
2018-08-20T16:56:53.360Z,938.35
2018-08-20T16:57:53.356Z,938.35
2018-08-20T16:58:53.354Z,938.32
2018-08-20T16:59:53.348Z,938.33
2018-08-20T17:00:53.365Z,938.31
2018-08-20T17:01:53.340Z,938.30
2018-08-20T17:02:53.337Z,938.29
2018-08-20T17:03:53.334Z,938.29
2018-08-20T17:04:53.333Z,938.31
2018-08-20T17:05:53.326Z,938.25
2018-08-20T17:06:53.321Z,938.28
2018-08-20T17:07:53.320Z,938.28
2018-08-20T17:08:53.316Z,938.22
2018-08-20T17:09:53.312Z,938.30
2018-08-20T17:10:53.308Z,938.27
2018-08-20T17:11:53.305Z,938.25
2018-08-20T17:12:53.302Z,938.24
2018-08-20T17:13:53.297Z,938.26
2018-08-20T17:14:53.364Z,938.25
2018-08-20T17:15:53.391Z,938.24
2018-08-20T17:16:53.287Z,938.21
2018-08-20T17:17:53.282Z,938.17
2018-08-20T17:18:53.279Z,938.21
2018-08-20T17:19:53.279Z,938.19
2018-08-20T17:20:53.337Z,938.17
2018-08-20T17:21:53.368Z,938.14
2018-08-20T17:22:53.264Z,938.12
2018-08-20T17:23:53.271Z,938.10
2018-08-20T17:24:53.256Z,938.11
2018-08-20T17:25:53.253Z,938.12
2018-08-20T17:26:53.254Z,938.09
2018-08-20T17:27:53.246Z,938.12
2018-08-20T17:28:53.243Z,938.08
2018-08-20T17:29:53.241Z,938.12
2018-08-20T17:30:53.235Z,938.09
2018-08-20T17:31:53.232Z,938.11
2018-08-20T17:32:53.229Z,938.12
2018-08-20T17:33:53.224Z,938.07
2018-08-20T17:34:53.223Z,938.08
2018-08-20T17:35:53.218Z,938.11
2018-08-20T17:36:53.214Z,938.09
2018-08-20T17:37:53.210Z,938.05
2018-08-20T17:38:53.207Z,938.05
2018-08-20T17:39:53.202Z,938.10
2018-08-20T17:40:53.201Z,938.07
2018-08-20T17:41:53.194Z,938.09
2018-08-20T17:42:53.191Z,938.06
2018-08-20T17:43:53.187Z,938.06
2018-08-20T17:44:53.184Z,938.04
2018-08-20T17:45:53.179Z,938.04
2018-08-20T17:46:53.180Z,938.05
2018-08-20T17:47:53.223Z,938.05
2018-08-20T17:48:53.169Z,938.02
2018-08-20T17:49:53.164Z,938.00
2018-08-20T17:50:53.161Z,937.99
2018-08-20T17:51:53.164Z,937.98
2018-08-20T17:52:53.153Z,938.00
2018-08-20T17:53:53.154Z,938.01
2018-08-20T17:54:53.147Z,937.99
2018-08-20T17:55:53.141Z,938.02
2018-08-20T17:56:53.139Z,937.99
2018-08-20T17:57:53.134Z,937.96
2018-08-20T17:58:53.131Z,937.95
2018-08-20T17:59:53.127Z,937.96
2018-08-20T18:00:53.128Z,937.94
2018-08-20T18:01:53.121Z,937.99
2018-08-20T18:02:53.119Z,937.95
2018-08-20T18:03:53.111Z,937.93
2018-08-20T18:04:53.124Z,937.95
2018-08-20T18:05:53.103Z,937.92
2018-08-20T18:06:53.105Z,937.95
2018-08-20T18:07:53.100Z,937.94
2018-08-20T18:08:53.095Z,937.95
2018-08-20T18:09:53.088Z,937.96
2018-08-20T18:10:53.085Z,937.91
2018-08-20T18:11:53.080Z,937.92
2018-08-20T18:12:53.078Z,937.92
2018-08-20T18:13:53.073Z,937.92
2018-08-20T18:14:53.071Z,937.94
2018-08-20T18:15:53.266Z,937.91
2018-08-20T18:16:53.062Z,937.93
2018-08-20T18:17:53.057Z,937.94
2018-08-20T18:18:53.053Z,937.92
2018-08-20T18:19:53.050Z,937.90
2018-08-20T18:20:53.046Z,937.90
2018-08-20T18:21:53.041Z,937.93
2018-08-20T18:22:53.039Z,937.91
2018-08-20T18:23:53.033Z,937.89
2018-08-20T18:24:53.029Z,937.90
2018-08-20T18:25:53.024Z,937.90
2018-08-20T18:26:53.020Z,937.91
2018-08-20T18:27:53.015Z,937.93
2018-08-20T18:28:53.012Z,937.90
2018-08-20T18:29:53.062Z,937.88
2018-08-20T18:30:53.005Z,937.90
2018-08-20T18:31:53.000Z,937.89
2018-08-20T18:32:52.996Z,937.92
2018-08-20T18:33:52.993Z,937.91
2018-08-20T18:34:52.988Z,937.93
2018-08-20T18:35:52.984Z,937.90
2018-08-20T18:36:53.034Z,937.91
2018-08-20T18:37:52.995Z,937.93
2018-08-20T18:38:52.970Z,937.90
2018-08-20T18:39:52.967Z,937.90
2018-08-20T18:40:52.964Z,937.88
2018-08-20T18:41:52.959Z,937.86
2018-08-20T18:42:52.955Z,937.83
2018-08-20T18:43:52.954Z,937.86
2018-08-20T18:44:52.951Z,937.86
2018-08-20T18:45:52.943Z,937.87
2018-08-20T18:46:52.940Z,937.88
2018-08-20T18:47:52.935Z,937.89
2018-08-20T18:48:52.931Z,937.90
2018-08-20T18:49:52.928Z,937.89
2018-08-20T18:50:52.924Z,937.89
2018-08-20T18:51:52.921Z,937.90
2018-08-20T18:52:52.917Z,937.93
2018-08-20T18:53:52.913Z,937.88
2018-08-20T18:54:52.909Z,937.92
2018-08-20T18:55:52.905Z,937.90
2018-08-20T18:56:52.902Z,937.94
2018-08-20T18:57:52.897Z,937.94
2018-08-20T18:58:52.892Z,937.96
2018-08-20T18:59:52.889Z,937.91
2018-08-20T19:00:52.885Z,938.00
2018-08-20T19:01:52.881Z,937.95
2018-08-20T19:02:52.877Z,937.95
2018-08-20T19:03:52.874Z,938.00
2018-08-20T19:04:52.869Z,938.00
2018-08-20T19:05:52.865Z,938.00
2018-08-20T19:06:52.874Z,937.98
2018-08-20T19:07:52.859Z,938.00
2018-08-20T19:08:52.852Z,938.00
2018-08-20T19:09:52.846Z,938.03
2018-08-20T19:10:52.844Z,938.04
2018-08-20T19:11:52.840Z,938.09
2018-08-20T19:12:52.835Z,938.07
2018-08-20T19:13:52.829Z,938.11
2018-08-20T19:14:52.826Z,938.09
2018-08-20T19:15:52.823Z,938.07
2018-08-20T19:16:52.818Z,938.09
2018-08-20T19:17:52.811Z,938.11
2018-08-20T19:18:52.809Z,938.11
2018-08-20T19:19:52.804Z,938.13
2018-08-20T19:20:52.799Z,938.15
2018-08-20T19:21:52.795Z,938.18
2018-08-20T19:22:52.791Z,938.15
2018-08-20T19:23:52.786Z,938.17
2018-08-20T19:24:52.783Z,938.12
2018-08-20T19:25:52.778Z,938.15
2018-08-20T19:26:52.873Z,938.18
2018-08-20T19:27:52.770Z,938.20
2018-08-20T19:28:52.814Z,938.18
2018-08-20T19:29:52.757Z,938.19
2018-08-20T19:30:52.752Z,938.23
2018-08-20T19:31:52.751Z,938.29
2018-08-20T19:32:52.745Z,938.26
2018-08-20T19:33:52.739Z,938.27
2018-08-20T19:34:52.735Z,938.33
2018-08-20T19:35:52.736Z,938.33
2018-08-20T19:36:52.724Z,938.35
2018-08-20T19:37:52.719Z,938.39
2018-08-20T19:38:52.715Z,938.42
2018-08-20T19:39:52.710Z,938.49
2018-08-20T19:40:52.705Z,938.42
2018-08-20T19:41:52.700Z,938.44
2018-08-20T19:42:52.695Z,938.46
2018-08-20T19:43:52.692Z,938.50
2018-08-20T19:44:52.687Z,938.49
2018-08-20T19:45:52.721Z,938.48
2018-08-20T19:46:52.678Z,938.49
2018-08-20T19:47:52.696Z,938.50
2018-08-20T19:48:52.689Z,938.50
2018-08-20T19:49:52.664Z,938.51
2018-08-20T19:50:52.806Z,938.49
2018-08-20T19:51:52.658Z,938.55
2018-08-20T19:52:52.647Z,938.58
2018-08-20T19:53:52.642Z,938.57
2018-08-20T19:54:52.639Z,938.61
2018-08-20T19:55:52.633Z,938.62
2018-08-20T19:56:52.627Z,938.61
2018-08-20T19:57:52.647Z,938.64
2018-08-20T19:58:52.618Z,938.67
2018-08-20T19:59:52.614Z,938.66
2018-08-20T20:00:52.609Z,938.65
2018-08-20T20:01:52.603Z,938.65
2018-08-20T20:02:52.596Z,938.68
2018-08-20T20:03:52.594Z,938.71
2018-08-20T20:04:52.587Z,938.70
2018-08-20T20:05:52.582Z,938.71
2018-08-20T20:06:52.575Z,938.71
2018-08-20T20:07:52.572Z,938.71
2018-08-20T20:08:52.569Z,938.73
2018-08-20T20:09:52.560Z,938.77
2018-08-20T20:10:52.556Z,938.77
2018-08-20T20:11:52.552Z,938.78
2018-08-20T20:12:52.546Z,938.80
2018-08-20T20:13:52.541Z,938.75
2018-08-20T20:14:52.536Z,938.80
2018-08-20T20:15:52.530Z,938.84
2018-08-20T20:16:52.527Z,938.81
2018-08-20T20:17:52.610Z,938.86
2018-08-20T20:18:52.515Z,938.87
2018-08-20T20:19:52.509Z,938.85
2018-08-20T20:20:52.606Z,938.89
2018-08-20T20:21:52.500Z,938.87
2018-08-20T20:22:52.494Z,938.90
2018-08-20T20:23:52.565Z,938.89
2018-08-20T20:24:52.485Z,938.89
2018-08-20T20:25:52.478Z,938.89
2018-08-20T20:26:52.473Z,938.86
2018-08-20T20:27:52.468Z,938.88
2018-08-20T20:28:52.466Z,938.86
2018-08-20T20:29:52.455Z,938.87
2018-08-20T20:30:52.450Z,938.92
2018-08-20T20:31:52.446Z,938.91
2018-08-20T20:32:52.440Z,938.90
2018-08-20T20:33:52.439Z,938.90
2018-08-20T20:34:52.447Z,938.90
2018-08-20T20:35:52.424Z,938.92
2018-08-20T20:36:52.425Z,938.94
2018-08-20T20:37:52.411Z,938.92
2018-08-20T20:38:52.433Z,938.96
2018-08-20T20:39:52.402Z,938.89
2018-08-20T20:40:52.400Z,938.97
2018-08-20T20:41:52.391Z,938.92
2018-08-20T20:42:52.384Z,938.97
2018-08-20T20:43:52.385Z,938.93
2018-08-20T20:44:52.373Z,938.96
2018-08-20T20:45:52.368Z,938.97
2018-08-20T20:46:52.362Z,938.95
2018-08-20T20:47:52.358Z,938.96
2018-08-20T20:48:52.352Z,938.94
2018-08-20T20:49:52.347Z,939.03
2018-08-20T20:50:52.491Z,939.02
2018-08-20T20:51:52.334Z,939.05
2018-08-20T20:52:52.328Z,939.04
2018-08-20T20:53:52.322Z,939.06
2018-08-20T20:54:52.317Z,939.08
2018-08-20T20:55:52.316Z,939.12
2018-08-20T20:56:52.305Z,939.12
2018-08-20T20:57:52.300Z,939.12
2018-08-20T20:58:52.294Z,939.09
2018-08-20T20:59:52.287Z,939.13
2018-08-20T21:00:52.287Z,939.12
2018-08-20T21:01:52.300Z,939.12
2018-08-20T21:02:52.273Z,939.15
2018-08-20T21:03:52.265Z,939.16
2018-08-20T21:04:52.261Z,939.14
2018-08-20T21:05:52.255Z,939.17
2018-08-20T21:06:52.247Z,939.16
2018-08-20T21:07:52.243Z,939.16
2018-08-20T21:08:52.234Z,939.19
2018-08-20T21:09:52.229Z,939.19
2018-08-20T21:10:52.254Z,939.17
2018-08-20T21:11:52.251Z,939.20
2018-08-20T21:12:52.229Z,939.20
2018-08-20T21:13:52.222Z,939.15
2018-08-20T21:14:52.232Z,939.20
2018-08-20T21:15:52.212Z,939.19
2018-08-20T21:16:52.215Z,939.18
2018-08-20T21:17:52.210Z,939.20
2018-08-20T21:18:52.190Z,939.21
2018-08-20T21:19:52.234Z,939.19
2018-08-20T21:20:52.397Z,939.25
2018-08-20T21:21:52.192Z,939.24
2018-08-20T21:22:52.179Z,939.24
2018-08-20T21:23:52.174Z,939.26
2018-08-20T21:24:52.171Z,939.28
2018-08-20T21:25:52.162Z,939.29
2018-08-20T21:26:52.155Z,939.27
2018-08-20T21:27:52.146Z,939.30
2018-08-20T21:28:52.144Z,939.32
2018-08-20T21:29:52.139Z,939.33
2018-08-20T21:30:52.162Z,939.30
2018-08-20T21:31:52.111Z,939.34
2018-08-20T21:32:52.112Z,939.38
2018-08-20T21:33:52.104Z,939.37
2018-08-20T21:34:52.100Z,939.35
2018-08-20T21:35:52.103Z,939.35
2018-08-20T21:36:52.097Z,939.40
2018-08-20T21:37:52.076Z,939.44
2018-08-20T21:38:52.051Z,939.45
2018-08-20T21:39:52.051Z,939.46
2018-08-20T21:40:52.041Z,939.45
2018-08-20T21:41:52.040Z,939.43
2018-08-20T21:42:52.040Z,939.38
2018-08-20T21:43:52.019Z,939.44
2018-08-20T21:44:52.040Z,939.45
2018-08-20T21:45:52.038Z,939.41
2018-08-20T21:46:52.049Z,939.46
2018-08-20T21:47:52.027Z,939.46
2018-08-20T21:48:52.016Z,939.45
2018-08-20T21:49:52.006Z,939.46
2018-08-20T21:50:52.133Z,939.50
2018-08-20T21:51:52.020Z,939.50
2018-08-20T21:52:51.975Z,939.52
2018-08-20T21:53:51.972Z,939.51
2018-08-20T21:54:51.952Z,939.51
2018-08-20T21:55:51.987Z,939.53
2018-08-20T21:56:51.968Z,939.56
2018-08-20T21:57:51.960Z,939.58
2018-08-20T21:58:51.953Z,939.58
2018-08-20T21:59:51.922Z,939.57
2018-08-20T22:00:51.943Z,939.60
2018-08-20T22:01:51.938Z,939.59
2018-08-20T22:02:51.939Z,939.56
2018-08-20T22:03:51.920Z,939.64
2018-08-20T22:04:51.927Z,939.63
2018-08-20T22:05:51.883Z,939.67
2018-08-20T22:06:51.926Z,939.65
2018-08-20T22:07:51.884Z,939.62
2018-08-20T22:08:51.907Z,939.66
2018-08-20T22:09:51.900Z,939.63
2018-08-20T22:10:51.868Z,939.64
2018-08-20T22:11:51.858Z,939.67
2018-08-20T22:12:51.876Z,939.63
2018-08-20T22:13:52.034Z,939.64
2018-08-20T22:14:51.883Z,939.63
2018-08-20T22:15:51.836Z,939.64
2018-08-20T22:16:51.820Z,939.66
2018-08-20T22:17:51.843Z,939.65
2018-08-20T22:18:51.812Z,939.67
2018-08-20T22:19:51.817Z,939.68
2018-08-20T22:20:51.795Z,939.69
2018-08-20T22:21:51.781Z,939.64
2018-08-20T22:22:51.778Z,939.64
2018-08-20T22:23:51.762Z,939.68
2018-08-20T22:24:51.958Z,939.69
2018-08-20T22:25:51.779Z,939.68
2018-08-20T22:26:51.748Z,939.70
2018-08-20T22:27:51.763Z,939.70
2018-08-20T22:28:51.732Z,939.70
2018-08-20T22:29:51.732Z,939.76
2018-08-20T22:30:51.719Z,939.71
2018-08-20T22:31:51.759Z,939.73
2018-08-20T22:32:51.768Z,939.72
2018-08-20T22:33:51.697Z,939.76
2018-08-20T22:34:51.891Z,939.78
2018-08-20T22:35:51.711Z,939.74
2018-08-20T22:36:51.711Z,939.79
2018-08-20T22:37:51.713Z,939.77
2018-08-20T22:38:51.665Z,939.83
2018-08-20T22:39:51.654Z,939.81
2018-08-20T22:40:51.697Z,939.84
2018-08-20T22:41:51.644Z,939.84
2018-08-20T22:42:51.686Z,939.85
2018-08-20T22:43:51.716Z,939.84
2018-08-20T22:44:51.621Z,939.83
2018-08-20T22:45:51.612Z,939.90
2018-08-20T22:46:51.675Z,939.91
2018-08-20T22:47:51.601Z,939.91
2018-08-20T22:48:51.657Z,939.89
2018-08-20T22:49:51.644Z,939.93
2018-08-20T22:50:51.621Z,939.94
2018-08-20T22:51:51.631Z,939.98
2018-08-20T22:52:51.591Z,939.92
2018-08-20T22:53:51.598Z,939.97
2018-08-20T22:54:51.639Z,939.97
2018-08-20T22:55:51.591Z,939.97
2018-08-20T22:56:51.842Z,939.98
2018-08-20T22:57:51.568Z,939.98
2018-08-20T22:58:51.605Z,939.98
2018-08-20T22:59:51.540Z,939.99
2018-08-20T23:00:51.516Z,939.96
2018-08-20T23:01:51.501Z,939.93
2018-08-20T23:02:51.554Z,939.97
2018-08-20T23:03:51.516Z,939.98
2018-08-20T23:04:51.480Z,939.99
2018-08-20T23:05:51.676Z,939.97
2018-08-20T23:06:51.529Z,939.96
2018-08-20T23:07:51.542Z,939.98
2018-08-20T23:08:51.525Z,940.02
2018-08-20T23:09:51.507Z,940.02
2018-08-20T23:10:51.438Z,939.97
2018-08-20T23:11:51.506Z,940.02
2018-08-20T23:12:51.497Z,939.97
2018-08-20T23:13:52.617Z,939.97
2018-08-20T23:14:51.539Z,939.99
2018-08-20T23:15:51.479Z,939.96
2018-08-20T23:16:51.393Z,939.99
2018-08-20T23:17:51.471Z,939.94
2018-08-20T23:18:51.467Z,939.99
2018-08-20T23:19:51.452Z,939.97
2018-08-20T23:20:51.460Z,939.96
2018-08-20T23:21:51.414Z,940.00
2018-08-20T23:22:51.429Z,939.98
2018-08-20T23:23:51.402Z,939.97
2018-08-20T23:24:51.334Z,940.01
2018-08-20T23:25:51.395Z,939.99
2018-08-20T23:26:51.494Z,940.03
2018-08-20T23:27:51.407Z,940.04
2018-08-20T23:28:51.404Z,940.09
2018-08-20T23:29:51.371Z,940.02
2018-08-20T23:30:51.390Z,940.03
2018-08-20T23:31:51.369Z,940.06
2018-08-20T23:32:51.282Z,940.09
2018-08-20T23:33:51.340Z,940.11
2018-08-20T23:34:51.263Z,940.11
2018-08-20T23:35:51.257Z,940.09
2018-08-20T23:36:51.249Z,940.12
2018-08-20T23:37:51.238Z,940.12
2018-08-20T23:38:51.419Z,940.13
2018-08-20T23:39:51.247Z,940.14
2018-08-20T23:40:51.219Z,940.16
2018-08-20T23:41:51.289Z,940.12
2018-08-20T23:42:51.203Z,940.12
2018-08-20T23:43:51.276Z,940.12
2018-08-20T23:44:51.272Z,940.16
2018-08-20T23:45:51.181Z,940.17
2018-08-20T23:46:51.271Z,940.22
2018-08-20T23:47:51.166Z,940.24
2018-08-20T23:48:51.157Z,940.22
2018-08-20T23:49:51.200Z,940.24
2018-08-20T23:50:51.239Z,940.28
2018-08-20T23:51:51.195Z,940.29
2018-08-20T23:52:51.191Z,940.25
2018-08-20T23:53:51.178Z,940.28
2018-08-20T23:54:51.108Z,940.28
2018-08-20T23:55:51.100Z,940.31
2018-08-20T23:56:51.093Z,940.32
2018-08-20T23:57:51.084Z,940.30
2018-08-20T23:58:51.076Z,940.32
2018-08-20T23:59:51.069Z,940.26
